Time;durP1;ratioP1;P1;durP2;ratioP2;P2;SDS_P1;SDS_P2;PMS_P1;PMS_P2;Temp;Humidity;BMP_temperature;BMP_pressure;BME280_temperature;BME280_humidity;BME280_pressure;Samples;Min_cycle;Max_cycle;Signal;HPM_P1;HPM_P2
2023/08/17 00:02:21;;;;;;;;;;;;;;;;;;5098454;28;19917;-28
2023/08/17 00:04:47;;;;;;;;;;;;;;;;;;5080208;28;19981;-31
2023/08/17 00:07:13;;;;;;;;;;;;;;;;;;5098661;28;19916;-27
2023/08/17 00:09:39;;;;;;;;;;;;;;;;;;5098619;28;19934;-27
2023/08/17 00:12:05;;;;;;;;;;;;;;;;;;5098273;28;21521;-28
2023/08/17 00:14:31;;;;;;;;;;;;;;;;;;5098217;28;19915;-27
2023/08/17 00:16:57;;;;;;;;;;;;;;;;;;5098207;28;20358;-23
2023/08/17 00:19:23;;;;;;;;;;;;;;;;;;5098434;28;20366;-24
2023/08/17 00:21:49;;;;;;;;;;;;;;;;;;5098006;28;19957;-26
2023/08/17 00:24:15;;;;;;;;;;;;;;;;;;5097999;28;19912;-22
2023/08/17 00:26:41;;;;;;;;;;;;;;;;;;5097988;28;19991;-25
2023/08/17 00:29:07;;;;;;;;;;;;;;;;;;5097915;28;20366;-23
2023/08/17 00:31:33;;;;;;;;;;;;;;;;;;5097949;28;19912;-29
2023/08/17 00:33:59;;;;;;;;;;;;;;;;;;5098019;28;19915;-25
2023/08/17 00:36:25;;;;;;;;;;;;;;;;;;5097794;28;19908;-25
2023/08/17 00:38:51;;;;;;;;;;;;;;;;;;5097984;28;19927;-27
2023/08/17 00:41:17;;;;;;;;;;;;;;;;;;5097696;28;19999;-27
2023/08/17 00:43:42;;;;;;;;;;;;;;;;;;5097466;28;19912;-26
2023/08/17 00:46:08;;;;;;;;;;;;;;;;;;5097634;28;19970;-27
2023/08/17 00:48:34;;;;;;;;;;;;;;;;;;5097581;28;19957;-28
2023/08/17 00:51:00;;;;;;;;;;;;;;;;;;5097534;28;19916;-28
2023/08/17 00:53:26;;;;;;;;;;;;;;;;;;5097353;28;19909;-25
2023/08/17 00:55:52;;;;;;;;;;;;;;;;;;5097454;28;19908;-23
2023/08/17 00:58:18;;;;;;;;;;;;;;;;;;5097638;28;19990;-24
2023/08/17 01:00:44;;;;;;;;;;;;;;;;;;5097381;28;19912;-26
2023/08/17 01:03:10;;;;;;;;;;;;;;;;;;5096697;28;20000;-23
2023/08/17 01:05:37;;;;;;;;;;;;;;;;;;5097282;28;19985;-25
2023/08/17 01:08:03;;;;;;;;;;;;;;;;;;5097301;28;19908;-28
2023/08/17 01:10:29;;;;;;;;;;;;;;;;;;5097197;28;19908;-30
2023/08/17 01:12:55;;;;;;;;;;;;;;;;;;5096985;28;19908;-24
2023/08/17 01:15:21;;;;;;;;;;;;;;;;;;5097332;28;19919;-29
2023/08/17 01:17:47;;;;;;;;;;;;;;;;;;5097040;28;20335;-24
2023/08/17 01:20:13;;;;;;;;;;;;;;;;;;5096994;28;19908;-24
2023/08/17 01:22:39;;;;;;;;;;;;;;;;;;5097177;28;20255;-27
2023/08/17 01:25:05;;;;;;;;;;;;;;;;;;5096786;28;19912;-24
2023/08/17 01:27:31;;;;;;;;;;;;;;;;;;5096942;28;19940;-26
2023/08/17 01:29:57;;;;;;;;;;;;;;;;;;5097098;28;19909;-26
2023/08/17 01:32:23;;;;;;;;;;;;;;;;;;5096702;28;19912;-25
2023/08/17 01:34:49;;;;;;;;;;;;;;;;;;5096672;28;19908;-22
2023/08/17 01:37:15;;;;;;;;;;;;;;;;;;5096646;28;19959;-25
2023/08/17 01:39:41;;;;;;;;;;;;;;;;;;5096662;28;19908;-28
2023/08/17 01:42:07;;;;;;;;;;;;;;;;;;5078688;28;19926;-25
2023/08/17 01:44:33;;;;;;;;;;;;;;;;;;5096420;28;20257;-30
2023/08/17 01:46:58;;;;;;;;;;;;;;;;;;5096405;28;19908;-24
2023/08/17 01:49:24;;;;;;;;;;;;;;;;;;5078458;28;19920;-26
2023/08/17 01:51:50;;;;;;;;;;;;;;;;;;5096284;28;20359;-29
2023/08/17 01:54:16;;;;;;;;;;;;;;;;;;5096335;28;20254;-25
2023/08/17 01:56:42;;;;;;;;;;;;;;;;;;5096488;28;20351;-23
2023/08/17 01:59:08;;;;;;;;;;;;;;;;;;5096228;28;19996;-26
2023/08/17 02:01:34;;;;;;;;;;;;;;;;;;5096506;28;19918;-28
2023/08/17 02:04:02;;;;;;;;;;;;;;;;;;5095786;28;19928;-27
2023/08/17 02:06:28;;;;;;;;;;;;;;;;;;5096880;28;19908;-25
2023/08/17 02:08:54;;;;;;;;;;;;;;;;;;5096290;28;19935;-27
2023/08/17 02:11:19;;;;;;;;;;;;;;;;;;5096027;28;20331;-28
2023/08/17 02:13:46;;;;;;;;;;;;;;;;;;5095265;28;20351;-24
2023/08/17 02:16:11;;;;;;;;;;;;;;;;;;5095852;28;19908;-29
2023/08/17 02:18:37;;;;;;;;;;;;;;;;;;5095877;28;19908;-25
2023/08/17 02:21:03;;;;;;;;;;;;;;;;;;5077974;28;19912;-28
2023/08/17 02:23:29;;;;;;;;;;;;;;;;;;5095732;28;19919;-27
2023/08/17 02:25:55;;;;;;;;;;;;;;;;;;5077800;28;19999;-29
2023/08/17 02:28:21;;;;;;;;;;;;;;;;;;5095702;28;19940;-22
2023/08/17 02:30:48;;;;;;;;;;;;;;;;;;5095591;28;19908;-22
2023/08/17 02:33:14;;;;;;;;;;;;;;;;;;5095485;28;20395;-27
2023/08/17 02:35:40;;;;;;;;;;;;;;;;;;5095830;28;19908;-30
2023/08/17 02:38:06;;;;;;;;;;;;;;;;;;5095542;28;19947;-24
2023/08/17 02:40:32;;;;;;;;;;;;;;;;;;5077591;28;19908;-25
2023/08/17 02:42:58;;;;;;;;;;;;;;;;;;5077456;28;20002;-23
2023/08/17 02:45:24;;;;;;;;;;;;;;;;;;5095322;28;20016;-30
2023/08/17 02:47:50;;;;;;;;;;;;;;;;;;5095366;28;19908;-29
2023/08/17 02:50:16;;;;;;;;;;;;;;;;;;5095392;28;19919;-26
2023/08/17 02:52:42;;;;;;;;;;;;;;;;;;5095185;28;19954;-26
2023/08/17 02:55:08;;;;;;;;;;;;;;;;;;5095278;28;19915;-26
2023/08/17 02:57:34;;;;;;;;;;;;;;;;;;5095258;28;19919;-24
2023/08/17 02:59:59;;;;;;;;;;;;;;;;;;5095170;28;19938;-25
2023/08/17 03:02:25;;;;;;;;;;;;;;;;;;5095035;28;19909;-29
2023/08/17 03:04:51;;;;;;;;;;;;;;;;;;5094894;28;19933;-27
2023/08/17 03:07:17;;;;;;;;;;;;;;;;;;5094984;28;19908;-25
2023/08/17 03:09:43;;;;;;;;;;;;;;;;;;5095227;28;19912;-29
2023/08/17 03:12:09;;;;;;;;;;;;;;;;;;5094928;28;19957;-29
2023/08/17 03:14:35;;;;;;;;;;;;;;;;;;5094917;28;19916;-27
2023/08/17 03:17:01;;;;;;;;;;;;;;;;;;5095151;28;20273;-27
2023/08/17 03:19:27;;;;;;;;;;;;;;;;;;5094869;28;19930;-25
2023/08/17 03:21:53;;;;;;;;;;;;;;;;;;5094749;28;19973;-24
2023/08/17 03:24:19;;;;;;;;;;;;;;;;;;5094867;28;19920;-26
2023/08/17 03:26:45;;;;;;;;;;;;;;;;;;5095002;28;20280;-26
2023/08/17 03:29:11;;;;;;;;;;;;;;;;;;5094761;28;20276;-26
2023/08/17 03:31:37;;;;;;;;;;;;;;;;;;5094699;28;20250;-28
2023/08/17 03:34:03;;;;;;;;;;;;;;;;;;5094585;28;19935;-22
2023/08/17 03:36:29;;;;;;;;;;;;;;;;;;5094907;28;19938;-23
2023/08/17 03:38:55;;;;;;;;;;;;;;;;;;5094652;28;19908;-26
2023/08/17 03:41:21;;;;;;;;;;;;;;;;;;5094562;28;19915;-23
2023/08/17 03:43:47;;;;;;;;;;;;;;;;;;5094774;28;19912;-27
2023/08/17 03:46:13;;;;;;;;;;;;;;;;;;5094562;28;19954;-25
2023/08/17 03:48:39;;;;;;;;;;;;;;;;;;5094493;28;19916;-25
2023/08/17 03:51:05;;;;;;;;;;;;;;;;;;5094475;28;19909;-30
2023/08/17 03:53:31;;;;;;;;;;;;;;;;;;5094363;28;19916;-32
2023/08/17 03:55:57;;;;;;;;;;;;;;;;;;5094895;28;19909;-24
2023/08/17 03:58:26;;;;;;;;;;;;;;;;;;5094397;28;19908;-25
2023/08/17 04:03:28;;;;;;;;;;;;;;;;;;5359980;22;19970;-20
2023/08/17 04:05:54;;;;;;;;;;;;;;;;;;5072970;28;19948;-21
2023/08/17 04:08:20;;;;;;;;;;;;;;;;;;5073959;28;20350;-22
2023/08/17 04:10:46;;;;;;;;;;;;;;;;;;5074151;28;19914;-21
2023/08/17 04:13:12;;;;;;;;;;;;;;;;;;5072651;28;19909;-21
2023/08/17 04:15:38;;;;;;;;;;;;;;;;;;5074317;28;20370;-20
2023/08/17 04:18:03;;;;;;;;;;;;;;;;;;5074036;28;19915;-21
2023/08/17 04:20:29;;;;;;;;;;;;;;;;;;5073807;28;19915;-21
2023/08/17 04:22:55;;;;;;;;;;;;;;;;;;5073789;28;20057;-21
2023/08/17 04:25:21;;;;;;;;;;;;;;;;;;5073940;28;20344;-21
2023/08/17 04:27:47;;;;;;;;;;;;;;;;;;5072687;28;20227;-25
2023/08/17 04:30:13;;;;;;;;;;;;;;;;;;5073730;28;19952;-21
2023/08/17 04:32:39;;;;;;;;;;;;;;;;;;5073734;28;19991;-20
2023/08/17 04:35:05;;;;;;;;;;;;;;;;;;5073734;28;19997;-21
2023/08/17 04:37:31;;;;;;;;;;;;;;;;;;5074126;28;19909;-21
2023/08/17 04:39:57;;;;;;;;;;;;;;;;;;5077369;28;19962;-21
2023/08/17 04:42:24;;;;;;;;;;;;;;;;;;5077258;28;20255;-20
2023/08/17 04:44:50;;;;;;;;;;;;;;;;;;5077288;28;20265;-20
2023/08/17 04:47:16;;;;;;;;;;;;;;;;;;5077118;28;19908;-29
2023/08/17 04:49:42;;;;;;;;;;;;;;;;;;5077599;28;19962;-20
2023/08/17 04:52:08;;;;;;;;;;;;;;;;;;5077182;28;20262;-22
2023/08/17 04:54:35;;;;;;;;;;;;;;;;;;5076929;28;19909;-21
2023/08/17 04:57:01;;;;;;;;;;;;;;;;;;5076961;28;20346;-21
2023/08/17 04:59:27;;;;;;;;;;;;;;;;;;5076989;28;19928;-21
2023/08/17 05:01:54;;;;;;;;;;;;;;;;;;5076613;28;19912;-21
2023/08/17 05:04:20;;;;;;;;;;;;;;;;;;5080222;28;19921;-20
2023/08/17 05:06:46;;;;;;;;;;;;;;;;;;5076787;28;20232;-20
2023/08/17 05:09:12;;;;;;;;;;;;;;;;;;5076443;28;19919;-22
2023/08/17 05:11:38;;;;;;;;;;;;;;;;;;5076814;28;19994;-21
2023/08/17 05:14:04;;;;;;;;;;;;;;;;;;5076391;28;19923;-22
2023/08/17 05:16:29;;;;;;;;;;;;;;;;;;5075389;28;19919;-21
2023/08/17 05:18:57;;;;;;;;;;;;;;;;;;5076364;28;19988;-20
2023/08/17 05:21:23;;;;;;;;;;;;;;;;;;5075384;28;20356;-21
2023/08/17 05:23:49;;;;;;;;;;;;;;;;;;5076318;28;19947;-21
2023/08/17 05:26:15;;;;;;;;;;;;;;;;;;5076185;28;20003;-21
2023/08/17 05:28:42;;;;;;;;;;;;;;;;;;5076626;28;19909;-24
2023/08/17 05:31:08;;;;;;;;;;;;;;;;;;5076231;28;20339;-21
2023/08/17 05:33:34;;;;;;;;;;;;;;;;;;5076257;28;20037;-21
2023/08/17 05:36:00;;;;;;;;;;;;;;;;;;5074850;28;19931;-21
2023/08/17 05:38:26;;;;;;;;;;;;;;;;;;5074903;28;19908;-22
2023/08/17 05:40:52;;;;;;;;;;;;;;;;;;5074790;28;20049;-20
2023/08/17 05:43:18;;;;;;;;;;;;;;;;;;5075551;28;19908;-21
2023/08/17 05:45:43;;;;;;;;;;;;;;;;;;5075484;28;20007;-23
2023/08/17 05:48:09;;;;;;;;;;;;;;;;;;5075580;28;19908;-21
2023/08/17 05:50:35;;;;;;;;;;;;;;;;;;5075664;28;19915;-21
2023/08/17 05:53:01;;;;;;;;;;;;;;;;;;5074714;28;19908;-22
2023/08/17 05:55:27;;;;;;;;;;;;;;;;;;5076079;28;19908;-20
2023/08/17 05:57:53;;;;;;;;;;;;;;;;;;5075721;28;19919;-21
2023/08/17 06:00:19;;;;;;;;;;;;;;;;;;5076006;28;19996;-22
2023/08/17 06:02:49;;;;;;;;;;;;;;;;;;5075228;28;19915;-22
2023/08/17 06:05:15;;;;;;;;;;;;;;;;;;5075328;28;19927;-21
2023/08/17 06:07:41;;;;;;;;;;;;;;;;;;5075562;28;20297;-20
2023/08/17 06:10:07;;;;;;;;;;;;;;;;;;5075382;28;19916;-21
2023/08/17 06:12:33;;;;;;;;;;;;;;;;;;5074983;28;20251;-21
2023/08/17 06:14:59;;;;;;;;;;;;;;;;;;5075120;28;19908;-23
2023/08/17 06:17:25;;;;;;;;;;;;;;;;;;5074815;28;19909;-22
2023/08/17 06:19:51;;;;;;;;;;;;;;;;;;5075089;28;20058;-21
2023/08/17 06:22:17;;;;;;;;;;;;;;;;;;5074712;28;19909;-20
2023/08/17 06:24:43;;;;;;;;;;;;;;;;;;5074862;28;19943;-21
2023/08/17 06:27:09;;;;;;;;;;;;;;;;;;5074709;28;19917;-21
2023/08/17 06:29:35;;;;;;;;;;;;;;;;;;5074634;28;20258;-22
2023/08/17 06:32:01;;;;;;;;;;;;;;;;;;5073479;28;19962;-21
2023/08/17 06:34:27;;;;;;;;;;;;;;;;;;5074551;28;19908;-21
2023/08/17 06:36:53;;;;;;;;;;;;;;;;;;5074415;28;19999;-20
2023/08/17 06:39:19;;;;;;;;;;;;;;;;;;5074445;28;19908;-20
2023/08/17 06:41:44;;;;;;;;;;;;;;;;;;5074646;28;19909;-21
2023/08/17 06:44:10;;;;;;;;;;;;;;;;;;5074624;28;19912;-21
2023/08/17 06:46:36;;;;;;;;;;;;;;;;;;5074736;28;19916;-22
2023/08/17 06:49:02;;;;;;;;;;;;;;;;;;5074580;28;19909;-21
2023/08/17 06:51:28;;;;;;;;;;;;;;;;;;5074826;28;20326;-21
2023/08/17 06:53:54;;;;;;;;;;;;;;;;;;5074548;28;19916;-20
2023/08/17 06:56:20;;;;;;;;;;;;;;;;;;5074406;28;19908;-23
2023/08/17 06:58:46;;;;;;;;;;;;;;;;;;5074665;28;19921;-24
2023/08/17 07:01:12;;;;;;;;;;;;;;;;;;5073007;28;19912;-22
2023/08/17 07:03:38;;;;;;;;;;;;;;;;;;5073016;28;19925;-21
2023/08/17 07:06:04;;;;;;;;;;;;;;;;;;5074566;28;19909;-20
2023/08/17 07:08:30;;;;;;;;;;;;;;;;;;5074648;28;19909;-20
2023/08/17 07:10:56;;;;;;;;;;;;;;;;;;5074172;28;19978;-22
2023/08/17 07:13:22;;;;;;;;;;;;;;;;;;5074390;28;19909;-21
2023/08/17 07:15:48;;;;;;;;;;;;;;;;;;5074704;28;20362;-22
2023/08/17 07:18:14;;;;;;;;;;;;;;;;;;5074323;28;19909;-22
2023/08/17 07:20:40;;;;;;;;;;;;;;;;;;5074447;28;19932;-20
2023/08/17 07:23:06;;;;;;;;;;;;;;;;;;5074107;28;19913;-21
2023/08/17 07:25:32;;;;;;;;;;;;;;;;;;5074265;28;20331;-21
2023/08/17 07:27:58;;;;;;;;;;;;;;;;;;5074573;28;20003;-22
2023/08/17 07:30:24;;;;;;;;;;;;;;;;;;5074163;28;19948;-21
2023/08/17 07:32:50;;;;;;;;;;;;;;;;;;5074148;28;19909;-21
2023/08/17 07:35:16;;;;;;;;;;;;;;;;;;5072806;28;20239;-21
2023/08/17 07:37:42;;;;;;;;;;;;;;;;;;5072834;28;19923;-20
2023/08/17 07:40:08;;;;;;;;;;;;;;;;;;5072697;28;19931;-22
2023/08/17 07:42:34;;;;;;;;;;;;;;;;;;5073906;28;19909;-21
2023/08/17 07:45:02;;;;;;;;;;;;;;;;;;5073993;28;19912;-21
2023/08/17 07:47:28;;;;;;;;;;;;;;;;;;5073877;28;19909;-21
2023/08/17 07:49:54;;;;;;;;;;;;;;;;;;5073876;28;19909;-22
2023/08/17 07:52:20;;;;;;;;;;;;;;;;;;5073894;28;19909;-20
2023/08/17 07:54:46;;;;;;;;;;;;;;;;;;5074274;28;19951;-20
2023/08/17 07:57:12;;;;;;;;;;;;;;;;;;5073796;28;20352;-22
2023/08/17 07:59:38;;;;;;;;;;;;;;;;;;5073938;28;19917;-21
2023/08/17 08:02:04;;;;;;;;;;;;;;;;;;5073526;28;19908;-24
2023/08/17 08:04:30;;;;;;;;;;;;;;;;;;5072336;28;20462;-21
2023/08/17 08:06:56;;;;;;;;;;;;;;;;;;5073635;28;20331;-21
2023/08/17 08:09:22;;;;;;;;;;;;;;;;;;5073749;28;19912;-19
2023/08/17 08:11:48;;;;;;;;;;;;;;;;;;5073176;28;19908;-22
2023/08/17 08:14:14;;;;;;;;;;;;;;;;;;5077540;28;20273;-23
2023/08/17 08:16:40;;;;;;;;;;;;;;;;;;5077557;28;20258;-22
2023/08/17 08:19:06;;;;;;;;;;;;;;;;;;5077261;28;19919;-20
2023/08/17 08:21:32;;;;;;;;;;;;;;;;;;5076152;28;19909;-22
2023/08/17 08:23:58;;;;;;;;;;;;;;;;;;5077018;28;20030;-22
2023/08/17 08:26:24;;;;;;;;;;;;;;;;;;5077137;28;20311;-24
2023/08/17 08:28:50;;;;;;;;;;;;;;;;;;5077195;28;19923;-21
2023/08/17 08:31:16;;;;;;;;;;;;;;;;;;5076911;28;20310;-20
2023/08/17 08:33:41;;;;;;;;;;;;;;;;;;5077401;28;20017;-21
2023/08/17 08:36:07;;;;;;;;;;;;;;;;;;5077163;28;19909;-21
2023/08/17 08:38:33;;;;;;;;;;;;;;;;;;5076879;28;19908;-22
2023/08/17 08:40:59;;;;;;;;;;;;;;;;;;5077137;28;20007;-21
2023/08/17 08:43:25;;;;;;;;;;;;;;;;;;5076608;28;19909;-21
2023/08/17 08:45:51;;;;;;;;;;;;;;;;;;5076393;28;19959;-21
2023/08/17 08:48:17;;;;;;;;;;;;;;;;;;5075297;28;19916;-21
2023/08/17 08:50:43;;;;;;;;;;;;;;;;;;5076699;28;19913;-23
2023/08/17 08:53:09;;;;;;;;;;;;;;;;;;5076996;28;19935;-21
2023/08/17 08:55:35;;;;;;;;;;;;;;;;;;5076346;28;19909;-21
2023/08/17 08:58:01;;;;;;;;;;;;;;;;;;5076232;28;19981;-21
2023/08/17 09:00:27;;;;;;;;;;;;;;;;;;5076291;28;19913;-21
2023/08/17 09:02:53;;;;;;;;;;;;;;;;;;5074848;28;19995;-20
2023/08/17 09:05:19;;;;;;;;;;;;;;;;;;5075110;28;19951;-22
2023/08/17 09:07:45;;;;;;;;;;;;;;;;;;5075152;28;20385;-24
2023/08/17 09:10:11;;;;;;;;;;;;;;;;;;5076032;28;20007;-21
2023/08/17 09:12:38;;;;;;;;;;;;;;;;;;5075919;28;19909;-21
2023/08/17 09:15:04;;;;;;;;;;;;;;;;;;5075859;28;19913;-21
2023/08/17 09:17:30;;;;;;;;;;;;;;;;;;5075981;28;19918;-23
2023/08/17 09:19:56;;;;;;;;;;;;;;;;;;5075913;28;19918;-21
2023/08/17 09:22:22;;;;;;;;;;;;;;;;;;5075599;28;19909;-21
2023/08/17 09:24:48;;;;;;;;;;;;;;;;;;5075964;28;19913;-20
2023/08/17 09:27:14;;;;;;;;;;;;;;;;;;5076052;28;19909;-21
2023/08/17 09:29:40;;;;;;;;;;;;;;;;;;5075912;28;19965;-22
2023/08/17 09:32:07;;;;;;;;;;;;;;;;;;5075829;28;20232;-22
2023/08/17 09:34:33;;;;;;;;;;;;;;;;;;5076134;28;19987;-22
2023/08/17 09:36:58;;;;;;;;;;;;;;;;;;5075155;28;20262;-21
2023/08/17 09:39:24;;;;;;;;;;;;;;;;;;5074829;28;19909;-21
2023/08/17 09:41:50;;;;;;;;;;;;;;;;;;5075875;28;20258;-22
2023/08/17 09:44:16;;;;;;;;;;;;;;;;;;5075756;28;19960;-23
2023/08/17 09:46:43;;;;;;;;;;;;;;;;;;5075955;28;19909;-20
2023/08/17 09:49:09;;;;;;;;;;;;;;;;;;5075818;28;19999;-21
2023/08/17 09:51:35;;;;;;;;;;;;;;;;;;5075651;28;19996;-21
2023/08/17 09:54:01;;;;;;;;;;;;;;;;;;5075800;28;20306;-21
2023/08/17 09:56:27;;;;;;;;;;;;;;;;;;5074682;28;19916;-22
2023/08/17 09:58:53;;;;;;;;;;;;;;;;;;5075777;28;19912;-22
2023/08/17 10:01:19;;;;;;;;;;;;;;;;;;5075703;28;19916;-20
2023/08/17 10:03:45;;;;;;;;;;;;;;;;;;5074941;28;20248;-23
2023/08/17 10:06:11;;;;;;;;;;;;;;;;;;5075373;28;20309;-22
2023/08/17 10:08:37;;;;;;;;;;;;;;;;;;5075579;28;19995;-21
2023/08/17 10:11:03;;;;;;;;;;;;;;;;;;5075306;28;20369;-20
2023/08/17 10:13:29;;;;;;;;;;;;;;;;;;5075255;28;19908;-22
2023/08/17 10:15:55;;;;;;;;;;;;;;;;;;5075609;28;19908;-22
2023/08/17 10:18:21;;;;;;;;;;;;;;;;;;5075330;28;19915;-21
2023/08/17 10:20:47;;;;;;;;;;;;;;;;;;5075105;28;20327;-21
2023/08/17 10:23:13;;;;;;;;;;;;;;;;;;5073878;28;19913;-20
2023/08/17 10:25:39;;;;;;;;;;;;;;;;;;5073712;28;20015;-20
2023/08/17 10:28:05;;;;;;;;;;;;;;;;;;5074915;28;20307;-21
2023/08/17 10:30:30;;;;;;;;;;;;;;;;;;5073668;28;19916;-22
2023/08/17 10:32:56;;;;;;;;;;;;;;;;;;5074524;28;19942;-22
2023/08/17 10:35:22;;;;;;;;;;;;;;;;;;5073905;28;20335;-20
2023/08/17 10:37:48;;;;;;;;;;;;;;;;;;5073562;28;19985;-22
2023/08/17 10:40:14;;;;;;;;;;;;;;;;;;5074627;28;20007;-22
2023/08/17 10:42:40;;;;;;;;;;;;;;;;;;5074781;28;19958;-21
2023/08/17 10:45:06;;;;;;;;;;;;;;;;;;5074641;28;20232;-21
2023/08/17 10:47:32;;;;;;;;;;;;;;;;;;5074488;28;19957;-20
2023/08/17 10:49:58;;;;;;;;;;;;;;;;;;5074466;28;19919;-20
2023/08/17 10:52:24;;;;;;;;;;;;;;;;;;5073000;28;19916;-22
2023/08/17 10:54:50;;;;;;;;;;;;;;;;;;5074510;28;19915;-21
2023/08/17 10:57:16;;;;;;;;;;;;;;;;;;5074049;28;19916;-21
2023/08/17 10:59:42;;;;;;;;;;;;;;;;;;5074147;28;19909;-21
2023/08/17 11:02:08;;;;;;;;;;;;;;;;;;5073984;28;20011;-21
2023/08/17 11:04:35;;;;;;;;;;;;;;;;;;5073817;28;19927;-22
2023/08/17 11:07:01;;;;;;;;;;;;;;;;;;5072912;28;19918;-21
2023/08/17 11:09:27;;;;;;;;;;;;;;;;;;5073913;28;19966;-22
2023/08/17 11:11:54;;;;;;;;;;;;;;;;;;5074246;28;20307;-21
2023/08/17 11:14:20;;;;;;;;;;;;;;;;;;5072852;28;19916;-20
2023/08/17 11:16:45;;;;;;;;;;;;;;;;;;5074101;28;20007;-22
2023/08/17 11:19:11;;;;;;;;;;;;;;;;;;5073881;28;19970;-23
2023/08/17 11:21:37;;;;;;;;;;;;;;;;;;5073859;28;19909;-21
2023/08/17 11:24:08;;;;;;;;;;;;;;;;;;5072695;28;19932;-21
2023/08/17 11:26:34;;;;;;;;;;;;;;;;;;5072899;28;19919;-22
2023/08/17 11:29:00;;;;;;;;;;;;;;;;;;5072969;28;19908;-21
2023/08/17 11:31:26;;;;;;;;;;;;;;;;;;5073050;28;20007;-22
2023/08/17 11:33:53;;;;;;;;;;;;;;;;;;5074377;28;19979;-22
2023/08/17 11:36:19;;;;;;;;;;;;;;;;;;5073922;28;20349;-22
2023/08/17 11:38:46;;;;;;;;;;;;;;;;;;5074509;28;20003;-20
2023/08/17 11:41:14;;;;;;;;;;;;;;;;;;5074119;28;20007;-21
2023/08/17 11:43:40;;;;;;;;;;;;;;;;;;5073846;28;19909;-22
2023/08/17 11:46:06;;;;;;;;;;;;;;;;;;5075070;28;19913;-21
2023/08/17 11:48:32;;;;;;;;;;;;;;;;;;5078276;28;20007;-21
2023/08/17 11:50:59;;;;;;;;;;;;;;;;;;5078112;28;20279;-21
2023/08/17 11:53:25;;;;;;;;;;;;;;;;;;5077748;28;19920;-21
2023/08/17 11:55:51;;;;;;;;;;;;;;;;;;5078075;28;19908;-22
2023/08/17 11:58:17;;;;;;;;;;;;;;;;;;5077994;28;19908;-21
2023/08/17 12:00:44;;;;;;;;;;;;;;;;;;5078024;28;19912;-21
2023/08/17 12:03:10;;;;;;;;;;;;;;;;;;5077496;28;20359;-22
2023/08/17 12:05:36;;;;;;;;;;;;;;;;;;5077853;28;20077;-20
2023/08/17 12:08:04;;;;;;;;;;;;;;;;;;5077208;28;20198;-21
2023/08/17 12:10:30;;;;;;;;;;;;;;;;;;5077801;28;20007;-20
2023/08/17 12:12:56;;;;;;;;;;;;;;;;;;5077575;28;19938;-21
2023/08/17 12:15:22;;;;;;;;;;;;;;;;;;5076567;28;19908;-22
2023/08/17 12:17:48;;;;;;;;;;;;;;;;;;5077800;28;20220;-21
2023/08/17 12:20:14;;;;;;;;;;;;;;;;;;5077611;28;19915;-21
2023/08/17 12:22:40;;;;;;;;;;;;;;;;;;5077725;28;19904;-22
2023/08/17 12:25:06;;;;;;;;;;;;;;;;;;5076561;28;19973;-21
2023/08/17 12:27:32;;;;;;;;;;;;;;;;;;5077417;28;20262;-23
2023/08/17 12:29:58;;;;;;;;;;;;;;;;;;5077570;28;19995;-24
2023/08/17 12:32:24;;;;;;;;;;;;;;;;;;5077460;28;20003;-21
2023/08/17 12:34:50;;;;;;;;;;;;;;;;;;5077863;28;19908;-21
2023/08/17 12:37:16;;;;;;;;;;;;;;;;;;5078153;28;20001;-20
2023/08/17 12:39:42;;;;;;;;;;;;;;;;;;5077322;28;19920;-21
2023/08/17 12:42:08;;;;;;;;;;;;;;;;;;5077075;28;20011;-24
2023/08/17 12:44:34;;;;;;;;;;;;;;;;;;5077160;28;19913;-21
2023/08/17 12:47:00;;;;;;;;;;;;;;;;;;5075944;28;19908;-20
2023/08/17 12:49:26;;;;;;;;;;;;;;;;;;5077154;28;19931;-21
2023/08/17 12:51:52;;;;;;;;;;;;;;;;;;5076959;28;19908;-21
2023/08/17 12:54:18;;;;;;;;;;;;;;;;;;5076806;28;19922;-22
2023/08/17 12:56:44;;;;;;;;;;;;;;;;;;5076923;28;20030;-22
2023/08/17 12:59:09;;;;;;;;;;;;;;;;;;5074608;28;19974;-22
2023/08/17 13:01:35;;;;;;;;;;;;;;;;;;5076478;28;19908;-21
2023/08/17 13:04:01;;;;;;;;;;;;;;;;;;5076488;28;19921;-22
2023/08/17 13:06:27;;;;;;;;;;;;;;;;;;5076774;28;20324;-22
2023/08/17 13:08:53;;;;;;;;;;;;;;;;;;5076845;28;19924;-21
2023/08/17 13:11:19;;;;;;;;;;;;;;;;;;5076723;28;20057;-21
2023/08/17 13:13:46;;;;;;;;;;;;;;;;;;5076587;28;19916;-21
2023/08/17 13:16:12;;;;;;;;;;;;;;;;;;5076687;28;19908;-21
2023/08/17 13:18:38;;;;;;;;;;;;;;;;;;5076442;28;19927;-23
2023/08/17 13:21:04;;;;;;;;;;;;;;;;;;5076133;28;19909;-22
2023/08/17 13:23:30;;;;;;;;;;;;;;;;;;5076020;28;19912;-30
2023/08/17 13:25:56;;;;;;;;;;;;;;;;;;5076676;28;20249;-22
2023/08/17 13:28:22;;;;;;;;;;;;;;;;;;5076437;28;19996;-21
2023/08/17 13:30:48;;;;;;;;;;;;;;;;;;5076409;28;19908;-23
2023/08/17 13:33:16;;;;;;;;;;;;;;;;;;5076178;28;20311;-22
2023/08/17 13:35:42;;;;;;;;;;;;;;;;;;5076365;28;19919;-32
2023/08/17 13:38:08;;;;;;;;;;;;;;;;;;5076516;28;19909;-21
2023/08/17 13:40:34;;;;;;;;;;;;;;;;;;5076144;28;20044;-22
2023/08/17 13:43:00;;;;;;;;;;;;;;;;;;5076001;28;19951;-21
2023/08/17 13:45:26;;;;;;;;;;;;;;;;;;5076194;28;19922;-21
2023/08/17 13:47:52;;;;;;;;;;;;;;;;;;5075809;28;19987;-22
2023/08/17 13:50:18;;;;;;;;;;;;;;;;;;5074650;28;19995;-20
2023/08/17 13:52:44;;;;;;;;;;;;;;;;;;5075850;28;19912;-22
2023/08/17 13:55:10;;;;;;;;;;;;;;;;;;5075997;28;20393;-24
2023/08/17 13:57:36;;;;;;;;;;;;;;;;;;5075645;28;20319;-23
2023/08/17 14:00:03;;;;;;;;;;;;;;;;;;5075351;28;19913;-20
2023/08/17 14:02:29;;;;;;;;;;;;;;;;;;5075400;28;19916;-23
2023/08/17 14:04:55;;;;;;;;;;;;;;;;;;5075607;28;19982;-22
2023/08/17 14:07:21;;;;;;;;;;;;;;;;;;5075840;28;20001;-20
2023/08/17 14:09:47;;;;;;;;;;;;;;;;;;5075429;28;20017;-22
2023/08/17 14:12:13;;;;;;;;;;;;;;;;;;5075516;28;20319;-22
2023/08/17 14:14:39;;;;;;;;;;;;;;;;;;5074362;28;20251;-22
2023/08/17 14:17:05;;;;;;;;;;;;;;;;;;5075537;28;19908;-20
2023/08/17 14:19:31;;;;;;;;;;;;;;;;;;5075171;28;19918;-20
2023/08/17 14:22:00;;;;;;;;;;;;;;;;;;5075488;28;19915;-20
2023/08/17 14:24:26;;;;;;;;;;;;;;;;;;5075084;28;19913;-21
2023/08/17 14:26:52;;;;;;;;;;;;;;;;;;5075150;28;20302;-20
2023/08/17 14:29:18;;;;;;;;;;;;;;;;;;5074912;28;19916;-20
2023/08/17 14:31:44;;;;;;;;;;;;;;;;;;5074912;28;20314;-22
2023/08/17 14:34:10;;;;;;;;;;;;;;;;;;5075099;28;19960;-24
2023/08/17 14:36:36;;;;;;;;;;;;;;;;;;5074845;28;19908;-21
2023/08/17 14:39:02;;;;;;;;;;;;;;;;;;5074964;28;20354;-20
2023/08/17 14:41:32;;;;;;;;;;;;;;;;;;5073448;28;20000;-21
2023/08/17 14:43:58;;;;;;;;;;;;;;;;;;5074403;28;19973;-21
2023/08/17 14:46:24;;;;;;;;;;;;;;;;;;5074749;28;19908;-22
2023/08/17 14:48:50;;;;;;;;;;;;;;;;;;5074892;28;19916;-21
2023/08/17 14:51:16;;;;;;;;;;;;;;;;;;5074759;28;19909;-21
2023/08/17 14:53:42;;;;;;;;;;;;;;;;;;5074645;28;19908;-21
2023/08/17 14:56:08;;;;;;;;;;;;;;;;;;5074884;28;20389;-21
2023/08/17 14:58:34;;;;;;;;;;;;;;;;;;5074629;28;19908;-20
2023/08/17 15:01:00;;;;;;;;;;;;;;;;;;5073436;28;19908;-21
2023/08/17 15:03:26;;;;;;;;;;;;;;;;;;5074229;28;19921;-20
2023/08/17 15:05:52;;;;;;;;;;;;;;;;;;5074340;28;19913;-21
2023/08/17 15:08:19;;;;;;;;;;;;;;;;;;5074419;28;20351;-23
2023/08/17 15:10:45;;;;;;;;;;;;;;;;;;5074357;28;19915;-22
2023/08/17 15:13:11;;;;;;;;;;;;;;;;;;5073791;28;20305;-22
2023/08/17 15:15:37;;;;;;;;;;;;;;;;;;5073758;28;19947;-22
2023/08/17 15:18:02;;;;;;;;;;;;;;;;;;5072552;28;19966;-19
2023/08/17 15:20:30;;;;;;;;;;;;;;;;;;5073315;28;19951;-21
2023/08/17 15:22:56;;;;;;;;;;;;;;;;;;5074098;28;19977;-20
2023/08/17 15:25:22;;;;;;;;;;;;;;;;;;5073745;28;19924;-21
2023/08/17 15:27:48;;;;;;;;;;;;;;;;;;5073718;28;20246;-22
2023/08/17 15:30:14;;;;;;;;;;;;;;;;;;5073670;28;19930;-22
2023/08/17 15:32:39;;;;;;;;;;;;;;;;;;5072311;28;19909;-20
2023/08/17 15:35:05;;;;;;;;;;;;;;;;;;5073826;28;19909;-22
2023/08/17 15:37:31;;;;;;;;;;;;;;;;;;5073996;28;19991;-22
2023/08/17 15:39:57;;;;;;;;;;;;;;;;;;5074184;28;19920;-21
2023/08/17 15:42:23;;;;;;;;;;;;;;;;;;5074038;28;20014;-22
2023/08/17 15:44:49;;;;;;;;;;;;;;;;;;5074126;28;19919;-21
2023/08/17 15:47:15;;;;;;;;;;;;;;;;;;5072721;28;20022;-21
2023/08/17 15:49:41;;;;;;;;;;;;;;;;;;5073915;28;20358;-23
2023/08/17 15:52:07;;;;;;;;;;;;;;;;;;5073711;28;20306;-21
2023/08/17 15:54:33;;;;;;;;;;;;;;;;;;5074036;28;20224;-23
2023/08/17 15:56:59;;;;;;;;;;;;;;;;;;5072856;28;19909;-21
2023/08/17 15:59:25;;;;;;;;;;;;;;;;;;5072861;28;19909;-20
2023/08/17 16:01:51;;;;;;;;;;;;;;;;;;5072953;28;19909;-20
2023/08/17 16:04:17;;;;;;;;;;;;;;;;;;5073650;28;19920;-21
2023/08/17 16:06:43;;;;;;;;;;;;;;;;;;5072691;28;20020;-21
2023/08/17 16:09:09;;;;;;;;;;;;;;;;;;5072728;28;19915;-21
2023/08/17 16:11:35;;;;;;;;;;;;;;;;;;5072855;28;19909;-20
2023/08/17 16:14:01;;;;;;;;;;;;;;;;;;5073582;28;19909;-20
2023/08/17 16:16:27;;;;;;;;;;;;;;;;;;5073837;28;19920;-20
2023/08/17 16:18:53;;;;;;;;;;;;;;;;;;5073873;28;19912;-23
2023/08/17 16:21:19;;;;;;;;;;;;;;;;;;5074166;28;20246;-20
2023/08/17 16:23:45;;;;;;;;;;;;;;;;;;5072743;28;20355;-20
2023/08/17 16:26:11;;;;;;;;;;;;;;;;;;5074061;28;19982;-21
2023/08/17 16:28:37;;;;;;;;;;;;;;;;;;5074009;28;19908;-19
2023/08/17 16:31:03;;;;;;;;;;;;;;;;;;5073819;28;19969;-22
2023/08/17 16:33:29;;;;;;;;;;;;;;;;;;5075448;28;20354;-21
2023/08/17 16:35:55;;;;;;;;;;;;;;;;;;5077134;28;19931;-22
2023/08/17 16:38:21;;;;;;;;;;;;;;;;;;5077435;28;20329;-20
2023/08/17 16:40:47;;;;;;;;;;;;;;;;;;5077274;28;20288;-21